createdAt,value
2018-08-08T00:00:46.989Z,35.38
2018-08-08T00:03:16.820Z,29.35
2018-08-08T00:05:47.090Z,31.93
2018-08-08T00:08:16.778Z,22.30
2018-08-08T00:10:46.454Z,31.77
2018-08-08T00:13:16.030Z,26.73
2018-08-08T00:15:45.425Z,34.57
2018-08-08T00:18:15.017Z,39.15
2018-08-08T00:20:45.484Z,35.08
2018-08-08T00:23:15.871Z,33.13
2018-08-08T00:25:45.305Z,38.90
2018-08-08T00:28:15.084Z,31.52
2018-08-08T00:30:44.541Z,30.80
2018-08-08T00:33:14.064Z,27.67
2018-08-08T00:35:43.558Z,32.73
2018-08-08T00:38:13.198Z,39.48
2018-08-08T00:40:42.688Z,35.00
2018-08-08T00:43:12.357Z,36.65
2018-08-08T00:45:41.864Z,35.55
2018-08-08T00:48:11.635Z,34.37
2018-08-08T00:50:42.127Z,41.00
2018-08-08T00:53:11.817Z,39.70
2018-08-08T00:55:41.482Z,43.97
2018-08-08T00:58:11.126Z,35.93
2018-08-08T01:00:40.841Z,32.93
2018-08-08T01:03:10.462Z,38.30
2018-08-08T01:05:40.103Z,36.87
2018-08-08T01:08:09.980Z,34.40
2018-08-08T01:10:39.761Z,32.70
2018-08-08T01:13:09.836Z,34.03
2018-08-08T01:15:39.522Z,38.85
2018-08-08T01:18:09.159Z,44.03
2018-08-08T01:20:38.986Z,46.75
2018-08-08T01:23:08.677Z,69.97
2018-08-08T01:25:38.256Z,54.13
2018-08-08T01:28:07.967Z,46.03
2018-08-08T01:30:37.602Z,38.53
2018-08-08T01:33:07.661Z,46.55
2018-08-08T01:35:37.296Z,50.23
2018-08-08T01:38:07.715Z,53.63
2018-08-08T01:40:37.623Z,38.43
2018-08-08T01:43:07.759Z,41.83
2018-08-08T01:45:37.429Z,44.27
2018-08-08T01:48:07.948Z,45.13
2018-08-08T01:50:38.082Z,46.87
2018-08-08T02:07:08.653Z,44.23
2018-08-08T02:09:39.388Z,39.60
2018-08-08T02:12:57.997Z,49.53
2018-08-08T02:15:27.757Z,44.53
2018-08-08T02:17:57.645Z,93.57
2018-08-08T02:20:27.383Z,47.30
2018-08-08T02:22:57.116Z,50.20
2018-08-08T02:25:26.795Z,43.47
2018-08-08T02:27:56.706Z,38.37
2018-08-08T02:30:26.480Z,48.10
2018-08-08T02:32:56.357Z,38.13
2018-08-08T02:35:26.320Z,46.43
2018-08-08T02:38:00.985Z,51.97
2018-08-08T02:40:32.694Z,58.03
2018-08-08T02:43:02.590Z,48.77
2018-08-08T02:45:32.258Z,46.73
2018-08-08T02:48:05.162Z,43.13
2018-08-08T02:50:35.766Z,45.37
2018-08-08T02:53:05.982Z,49.23
2018-08-08T02:55:35.806Z,66.00
2018-08-08T02:58:05.784Z,53.20
2018-08-08T03:00:35.712Z,48.90
2018-08-08T03:03:06.123Z,49.47
2018-08-08T03:05:36.037Z,43.63
2018-08-08T03:08:06.202Z,39.27
2018-08-08T03:10:36.079Z,44.57
2018-08-08T03:13:06.815Z,50.97
2018-08-08T03:15:36.782Z,47.37
2018-08-08T03:31:24.361Z,51.57
2018-08-08T03:36:47.406Z,47.17
2018-08-08T03:39:18.607Z,42.03
2018-08-08T03:41:48.819Z,50.87
2018-08-08T03:44:18.997Z,51.73
2018-08-08T03:46:48.858Z,54.80
2018-08-08T03:49:19.025Z,54.50
2018-08-08T03:54:42.023Z,49.60
2018-08-08T03:57:11.875Z,62.17
2018-08-08T03:59:41.881Z,62.50
2018-08-08T04:02:12.357Z,74.73
2018-08-08T04:04:43.218Z,67.00
2018-08-08T04:07:13.358Z,73.53
2018-08-08T04:09:43.483Z,78.83
2018-08-08T04:12:13.837Z,62.63
2018-08-08T04:14:45.143Z,74.13
2018-08-08T04:42:06.239Z,61.57
2018-08-08T04:44:36.752Z,76.67
2018-08-08T04:47:06.683Z,78.60
2018-08-08T04:49:36.701Z,79.37
2018-08-08T04:52:07.476Z,78.17
2018-08-08T04:54:37.514Z,121.28
2018-08-08T04:57:07.440Z,77.72
2018-08-08T04:59:37.289Z,92.57
2018-08-08T05:02:06.976Z,89.97
2018-08-08T05:04:36.835Z,60.33
2018-08-08T05:07:06.363Z,56.25
2018-08-08T05:09:36.025Z,76.02
2018-08-08T05:12:05.560Z,75.87
2018-08-08T05:14:35.203Z,77.22
2018-08-08T05:17:04.756Z,88.07
2018-08-08T05:19:34.483Z,430.45
2018-08-08T05:22:04.097Z,101.33
2018-08-08T05:24:33.703Z,108.80
2018-08-08T05:27:03.388Z,218.22
2018-08-08T05:29:33.173Z,38.65
2018-08-08T05:32:02.838Z,65.72
2018-08-08T05:34:32.337Z,29.92
2018-08-08T05:37:02.182Z,24.15
2018-08-08T05:39:32.136Z,23.00
2018-08-08T05:42:01.792Z,26.70
2018-08-08T05:44:31.705Z,22.75
2018-08-08T05:47:01.860Z,20.08
2018-08-08T05:49:31.642Z,22.22
2018-08-08T05:52:01.280Z,20.12
2018-08-08T05:54:31.060Z,19.75
2018-08-08T05:57:00.641Z,18.75
2018-08-08T05:59:30.256Z,17.42
2018-08-08T06:02:00.022Z,17.52
2018-08-08T06:04:29.721Z,18.07
2018-08-08T06:06:59.140Z,18.15
2018-08-08T06:09:28.720Z,18.50
2018-08-08T06:11:58.361Z,21.85
2018-08-08T06:14:27.892Z,20.23
2018-08-08T06:16:57.360Z,23.20
2018-08-08T06:19:27.029Z,17.48
2018-08-08T06:21:56.639Z,21.20
2018-08-08T06:24:26.443Z,18.37
2018-08-08T06:26:56.040Z,17.40
2018-08-08T06:29:25.862Z,37.73
2018-08-08T06:31:55.560Z,25.08
2018-08-08T06:34:25.282Z,17.55
2018-08-08T06:36:55.032Z,16.97
2018-08-08T06:39:24.831Z,16.10
2018-08-08T06:41:54.360Z,15.90
2018-08-08T06:44:23.829Z,15.25
2018-08-08T06:46:53.486Z,14.23
2018-08-08T06:49:23.131Z,16.05
2018-08-08T06:51:52.659Z,15.43
2018-08-08T06:54:22.301Z,15.95
2018-08-08T06:56:52.019Z,20.00
2018-08-08T06:59:21.587Z,15.68
2018-08-08T07:01:51.163Z,16.73
2018-08-08T07:04:20.779Z,15.00
2018-08-08T07:06:50.314Z,14.95
2018-08-08T07:09:19.888Z,13.15
2018-08-08T07:11:49.461Z,12.05
2018-08-08T07:14:19.135Z,19.48
2018-08-08T07:16:48.762Z,13.43
2018-08-08T07:19:18.309Z,14.18
2018-08-08T07:21:47.907Z,13.05
2018-08-08T07:24:17.459Z,12.63
2018-08-08T07:26:46.947Z,12.25
2018-08-08T07:29:16.661Z,14.47
2018-08-08T07:31:46.322Z,11.63
2018-08-08T07:34:16.010Z,12.45
2018-08-08T07:36:45.588Z,13.38
2018-08-08T07:39:15.319Z,12.58
2018-08-08T07:41:44.879Z,12.10
2018-08-08T07:44:14.607Z,15.03
2018-08-08T07:46:44.161Z,18.17
2018-08-08T07:49:13.941Z,11.70
2018-08-08T07:51:43.679Z,11.75
2018-08-08T07:54:13.281Z,11.53
2018-08-08T07:56:42.799Z,11.65
2018-08-08T07:59:13.279Z,12.07
2018-08-08T08:01:42.768Z,12.73
2018-08-08T08:04:12.783Z,12.60
2018-08-08T08:06:42.519Z,12.20
2018-08-08T08:09:12.989Z,12.23
2018-08-08T08:11:42.479Z,13.90
2018-08-08T08:14:12.160Z,11.57
2018-08-08T08:16:41.699Z,11.33
2018-08-08T08:19:11.228Z,11.28
2018-08-08T08:21:40.817Z,13.05
2018-08-08T08:24:10.588Z,13.78
2018-08-08T08:26:40.156Z,11.68
2018-08-08T08:29:09.942Z,11.80
2018-08-08T08:31:39.935Z,11.70
2018-08-08T08:34:09.881Z,11.55
2018-08-08T08:36:39.488Z,12.80
2018-08-08T08:39:12.320Z,11.83
2018-08-08T08:41:41.879Z,12.35
2018-08-08T08:44:11.542Z,12.05
2018-08-08T08:46:41.701Z,11.48
2018-08-08T08:49:11.355Z,11.55
2018-08-08T08:51:40.896Z,11.53
2018-08-08T08:54:10.603Z,11.80
2018-08-08T08:56:40.078Z,12.18
2018-08-08T08:59:09.597Z,11.10
2018-08-08T09:01:39.083Z,12.63
2018-08-08T09:04:08.678Z,11.75
2018-08-08T09:06:38.253Z,11.95
2018-08-08T09:09:12.022Z,12.23
2018-08-08T09:11:41.800Z,12.00
2018-08-08T09:14:11.463Z,11.03
2018-08-08T09:16:41.095Z,11.95
2018-08-08T09:19:10.776Z,11.68
2018-08-08T09:21:40.276Z,11.38
2018-08-08T09:24:10.141Z,11.65
2018-08-08T09:26:39.710Z,12.20
2018-08-08T09:29:09.436Z,11.65
2018-08-08T09:31:39.321Z,12.10
2018-08-08T09:34:09.296Z,11.93
2018-08-08T09:36:39.171Z,12.13
2018-08-08T09:39:10.835Z,12.53
2018-08-08T09:41:41.109Z,12.70
2018-08-08T09:44:10.929Z,12.33
2018-08-08T09:46:40.517Z,12.07
2018-08-08T09:49:10.845Z,11.93
2018-08-08T09:51:40.679Z,12.03
2018-08-08T09:54:10.258Z,12.53
2018-08-08T09:56:39.779Z,12.78
2018-08-08T09:59:09.838Z,12.58
2018-08-08T10:01:45.379Z,12.00
2018-08-08T10:04:20.177Z,14.03
2018-08-08T10:06:49.966Z,13.45
2018-08-08T10:09:19.910Z,13.40
2018-08-08T10:11:49.910Z,12.28
2018-08-08T10:14:20.263Z,13.25
2018-08-08T10:16:50.020Z,13.08
2018-08-08T10:19:21.336Z,12.43
2018-08-08T10:21:50.848Z,12.05
2018-08-08T10:24:20.771Z,12.78
2018-08-08T10:26:50.632Z,13.00
2018-08-08T10:29:20.972Z,13.13
2018-08-08T10:31:50.632Z,13.08
2018-08-08T10:34:20.532Z,13.55
2018-08-08T10:36:50.309Z,12.98
2018-08-08T10:39:20.991Z,14.30
2018-08-08T10:41:50.875Z,12.53
2018-08-08T10:44:20.651Z,13.18
2018-08-08T10:46:50.214Z,12.53
2018-08-08T10:49:20.191Z,12.53
2018-08-08T10:51:50.294Z,14.13
2018-08-08T10:54:20.211Z,12.98
2018-08-08T10:56:50.052Z,12.90
2018-08-08T10:59:20.831Z,12.80
2018-08-08T11:01:50.630Z,13.43
2018-08-08T11:04:21.476Z,13.13
2018-08-08T11:06:50.954Z,13.53
2018-08-08T11:09:20.525Z,13.85
2018-08-08T11:11:50.164Z,13.22
2018-08-08T11:14:20.181Z,13.98
2018-08-08T11:16:49.977Z,12.53
2018-08-08T11:19:20.255Z,13.22
2018-08-08T11:21:50.734Z,13.72
2018-08-08T11:24:20.314Z,13.38
2018-08-08T11:26:50.126Z,13.62
2018-08-08T11:29:20.095Z,13.00
2018-08-08T11:31:49.895Z,12.93
2018-08-08T11:34:19.563Z,13.95
2018-08-08T11:36:49.318Z,13.08
2018-08-08T11:39:20.596Z,12.60
2018-08-08T11:41:50.277Z,13.43
2018-08-08T11:44:21.582Z,13.75
2018-08-08T11:46:51.289Z,13.60
2018-08-08T11:49:21.937Z,13.93
2018-08-08T11:51:51.695Z,13.18
2018-08-08T11:54:21.535Z,13.70
2018-08-08T11:56:52.324Z,13.18
2018-08-08T11:59:23.657Z,13.03
2018-08-08T12:01:53.377Z,13.05
2018-08-08T12:04:23.080Z,13.93
2018-08-08T12:06:54.244Z,13.98
2018-08-08T12:09:26.438Z,14.25
2018-08-08T12:11:56.183Z,14.53
2018-08-08T12:14:27.556Z,13.98
2018-08-08T12:16:57.179Z,14.03
2018-08-08T12:19:29.015Z,13.15
2018-08-08T12:21:59.428Z,14.25
2018-08-08T12:24:30.836Z,14.25
2018-08-08T12:27:00.795Z,14.25
2018-08-08T12:29:30.596Z,13.70
2018-08-08T12:32:00.664Z,14.35
2018-08-08T12:34:30.426Z,14.68
2018-08-08T12:37:00.177Z,14.55
2018-08-08T12:39:30.634Z,13.65
2018-08-08T12:42:01.467Z,13.98
2018-08-08T12:44:31.188Z,14.28
2018-08-08T12:47:01.345Z,14.13
2018-08-08T12:49:31.117Z,14.03
2018-08-08T12:52:02.118Z,14.78
2018-08-08T12:54:31.705Z,14.50
2018-08-08T12:57:01.377Z,14.18
2018-08-08T12:59:30.937Z,14.50
2018-08-08T13:02:00.672Z,14.68
2018-08-08T13:04:30.906Z,14.43
2018-08-08T13:07:01.068Z,15.10
2018-08-08T13:09:31.298Z,14.63
2018-08-08T13:12:01.428Z,15.00
2018-08-08T13:14:31.388Z,14.25
2018-08-08T13:17:02.275Z,14.50
2018-08-08T13:19:32.536Z,14.80
2018-08-08T13:22:03.049Z,14.55
2018-08-08T13:24:33.216Z,15.55
2018-08-08T13:27:03.748Z,15.72
2018-08-08T13:29:33.789Z,15.88
2018-08-08T13:32:04.430Z,15.23
2018-08-08T13:34:34.598Z,16.62
2018-08-08T13:37:04.771Z,16.10
2018-08-08T13:39:35.113Z,17.05
2018-08-08T13:42:05.357Z,16.57
2018-08-08T13:44:35.671Z,16.97
2018-08-08T13:47:05.692Z,16.85
2018-08-08T13:49:35.671Z,17.12
2018-08-08T13:52:05.651Z,16.87
2018-08-08T13:54:35.551Z,16.80
2018-08-08T13:57:06.138Z,17.90
2018-08-08T13:59:37.414Z,16.15
2018-08-08T14:02:07.712Z,17.52
2018-08-08T14:04:37.830Z,18.87
2018-08-08T14:07:07.951Z,18.27
2018-08-08T14:09:38.016Z,19.05
2018-08-08T14:12:08.597Z,20.08
2018-08-08T14:14:38.553Z,19.73
2018-08-08T14:17:08.851Z,20.55
2018-08-08T14:19:39.233Z,21.48
2018-08-08T14:22:09.641Z,20.62
2018-08-08T14:24:39.714Z,20.72
2018-08-08T14:27:09.621Z,23.18
2018-08-08T14:29:39.532Z,23.07
2018-08-08T14:32:10.035Z,23.10
2018-08-08T14:34:40.378Z,22.35
2018-08-08T14:37:10.353Z,23.35
2018-08-08T14:39:40.701Z,22.50
2018-08-08T14:42:10.922Z,24.18
2018-08-08T14:44:41.096Z,21.95
2018-08-08T14:47:11.867Z,23.52
2018-08-08T14:49:41.896Z,23.98
2018-08-08T14:52:12.030Z,23.57
2018-08-08T14:54:42.400Z,22.45
2018-08-08T14:57:12.674Z,23.77
2018-08-08T14:59:42.734Z,23.18
2018-08-08T15:02:12.593Z,22.27
2018-08-08T15:04:42.696Z,23.45
2018-08-08T15:07:12.775Z,24.57
2018-08-08T15:09:42.815Z,24.18
2018-08-08T15:12:12.953Z,22.40
2018-08-08T15:14:43.055Z,24.27
2018-08-08T15:17:13.016Z,22.70
2018-08-08T15:19:42.934Z,23.30
2018-08-08T15:22:12.837Z,24.27
2018-08-08T15:24:42.646Z,23.20
2018-08-08T15:27:12.734Z,24.75
2018-08-08T15:29:42.783Z,23.65
2018-08-08T15:32:13.654Z,23.62
2018-08-08T15:34:43.888Z,24.20
2018-08-08T15:37:15.287Z,25.00
2018-08-08T15:39:45.021Z,23.67
2018-08-08T15:42:14.815Z,25.48
2018-08-08T15:44:44.813Z,24.12
2018-08-08T15:47:14.962Z,23.65
2018-08-08T15:49:45.054Z,24.00
2018-08-08T15:52:14.862Z,24.65
2018-08-08T15:54:44.834Z,24.72
2018-08-08T15:57:14.674Z,23.62
2018-08-08T15:59:44.674Z,24.02
2018-08-08T16:02:14.525Z,24.10
2018-08-08T16:04:44.415Z,24.77
2018-08-08T16:07:14.555Z,24.92
2018-08-08T16:09:44.533Z,24.80
2018-08-08T16:12:14.532Z,24.92
2018-08-08T16:14:44.511Z,23.83
2018-08-08T16:17:14.413Z,22.75
2018-08-08T16:19:44.374Z,24.15
2018-08-08T16:22:14.456Z,23.90
2018-08-08T16:24:44.672Z,24.60
2018-08-08T16:27:14.633Z,22.90
2018-08-08T16:29:44.594Z,24.35
2018-08-08T16:32:16.386Z,23.77
2018-08-08T16:34:46.673Z,25.60
2018-08-08T16:37:17.192Z,25.90
2018-08-08T16:39:47.372Z,24.12
2018-08-08T16:42:17.391Z,25.35
2018-08-08T16:44:47.412Z,23.75
2018-08-08T16:47:17.493Z,24.02
2018-08-08T16:49:47.729Z,26.17
2018-08-08T16:52:30.178Z,25.90
2018-08-08T16:55:02.410Z,25.55
2018-08-08T17:03:16.883Z,26.30
2018-08-08T17:06:08.146Z,26.80
2018-08-08T17:08:38.724Z,27.77
2018-08-08T17:11:09.235Z,27.17
2018-08-08T17:13:39.553Z,27.62
2018-08-08T17:16:09.819Z,28.50
2018-08-08T17:18:40.054Z,28.42
2018-08-08T17:21:10.653Z,29.27
2018-08-08T17:23:40.742Z,30.30
2018-08-08T17:26:10.935Z,28.07
2018-08-08T17:28:41.612Z,29.50
2018-08-08T17:31:11.853Z,28.20
2018-08-08T17:33:41.940Z,27.65
2018-08-08T17:36:12.295Z,29.98
2018-08-08T17:38:42.220Z,29.87
2018-08-08T17:41:12.720Z,32.20
2018-08-08T17:43:43.050Z,32.50
2018-08-08T17:46:13.031Z,34.23
2018-08-08T17:48:43.379Z,33.23
2018-08-08T17:51:13.971Z,32.95
2018-08-08T17:53:44.451Z,35.58
2018-08-08T17:56:14.535Z,34.70
2018-08-08T17:58:44.392Z,35.05
2018-08-08T18:01:14.292Z,38.35
2018-08-08T18:03:44.331Z,37.65
2018-08-08T18:06:14.479Z,35.33
2018-08-08T18:08:44.462Z,35.95
2018-08-08T18:11:15.258Z,36.90
2018-08-08T18:13:45.178Z,38.20
2018-08-08T18:16:15.245Z,36.15
2018-08-08T18:18:45.180Z,38.02
2018-08-08T18:21:15.237Z,39.63
2018-08-08T18:23:45.101Z,40.05
2018-08-08T18:26:15.290Z,41.40
2018-08-08T18:28:45.178Z,42.93
2018-08-08T18:31:15.137Z,42.33
2018-08-08T18:33:45.031Z,42.67
2018-08-08T18:36:14.931Z,40.10
2018-08-08T18:38:44.778Z,42.48
2018-08-08T18:41:14.982Z,44.33
2018-08-08T18:43:45.623Z,44.25
2018-08-08T18:46:15.470Z,43.98
2018-08-08T18:48:56.819Z,45.12
2018-08-08T18:51:33.722Z,46.18
2018-08-08T18:54:03.782Z,45.78
2018-08-08T18:56:41.454Z,47.78
2018-08-08T18:59:23.399Z,44.58
2018-08-08T19:01:54.786Z,49.23
2018-08-08T19:04:25.203Z,50.45
2018-08-08T19:06:55.389Z,48.40
2018-08-08T19:09:27.337Z,45.50
2018-08-08T19:12:09.239Z,46.30
2018-08-08T19:14:40.290Z,45.92
2018-08-08T19:17:11.068Z,47.50
2018-08-08T19:19:41.493Z,51.08
2018-08-08T19:22:12.568Z,51.65
2018-08-08T19:24:42.947Z,47.23
2018-08-08T19:27:30.215Z,48.15
2018-08-08T19:30:00.409Z,45.88
2018-08-08T19:32:30.174Z,44.83
2018-08-08T19:35:00.031Z,43.20
2018-08-08T19:37:29.816Z,43.87
2018-08-08T19:39:59.689Z,41.53
2018-08-08T19:42:29.953Z,41.20
2018-08-08T19:44:59.889Z,40.00
2018-08-08T19:47:29.650Z,40.17
2018-08-08T19:49:59.430Z,31.85
2018-08-08T19:52:29.170Z,29.60
2018-08-08T19:54:59.076Z,26.27
2018-08-08T19:57:29.009Z,27.42
2018-08-08T19:59:59.042Z,27.22
2018-08-08T20:02:29.145Z,26.33
2018-08-08T20:04:59.027Z,29.65
2018-08-08T20:07:28.995Z,29.60
2018-08-08T20:09:59.061Z,26.10
2018-08-08T20:12:29.156Z,26.07
2018-08-08T20:14:59.028Z,29.45
2018-08-08T20:17:29.009Z,29.65
2018-08-08T20:19:59.117Z,29.52
2018-08-08T20:22:29.470Z,33.48
2018-08-08T20:24:59.452Z,32.38
2018-08-08T20:27:29.315Z,36.50
2018-08-08T20:29:59.228Z,36.58
2018-08-08T20:32:29.029Z,36.85
2018-08-08T20:34:58.955Z,39.48
2018-08-08T20:37:28.668Z,36.17
2018-08-08T20:39:58.576Z,38.63
2018-08-08T20:42:28.516Z,41.53
2018-08-08T20:44:58.451Z,37.05
2018-08-08T20:47:28.388Z,36.45
2018-08-08T20:49:58.331Z,35.43
2018-08-08T20:52:28.209Z,39.65
2018-08-08T20:54:59.989Z,36.93
2018-08-08T20:57:29.790Z,38.60
2018-08-08T21:00:01.018Z,40.52
2018-08-08T21:02:30.937Z,41.77
2018-08-08T21:05:02.436Z,40.58
2018-08-08T21:07:32.249Z,28.77
2018-08-08T21:10:03.889Z,30.85
2018-08-08T21:12:33.806Z,32.67
2018-08-08T21:15:04.769Z,33.18
2018-08-08T21:17:34.487Z,29.87
2018-08-08T21:20:06.169Z,16.45
2018-08-08T21:22:36.689Z,17.10
2018-08-08T21:25:07.549Z,14.70
2018-08-08T21:27:37.350Z,15.05
2018-08-08T21:30:09.350Z,16.48
2018-08-08T21:32:39.177Z,20.23
2018-08-08T21:35:10.830Z,24.12
2018-08-08T21:37:40.529Z,22.93
2018-08-08T21:40:12.377Z,25.85
2018-08-08T21:42:42.309Z,22.40
2018-08-08T21:45:12.989Z,19.75
2018-08-08T21:47:42.830Z,19.57
2018-08-08T21:50:13.917Z,18.67
2018-08-08T21:52:43.790Z,22.62
2018-08-08T21:55:24.197Z,26.85
2018-08-08T21:58:04.496Z,23.65
2018-08-08T22:00:44.899Z,22.58
2018-08-08T22:03:25.117Z,21.62
2018-08-08T22:06:06.117Z,25.92
2018-08-08T22:08:46.377Z,28.02
2018-08-08T22:13:33.018Z,31.40
2018-08-08T22:16:13.518Z,30.45
2018-08-08T22:19:52.391Z,29.07
2018-08-08T22:22:22.278Z,27.70
2018-08-08T22:24:52.202Z,29.42
2018-08-08T22:27:22.278Z,28.80
2018-08-08T22:29:52.199Z,26.02
2018-08-08T22:32:22.178Z,31.30
2018-08-08T22:34:52.659Z,29.40
2018-08-08T22:37:22.660Z,28.75
2018-08-08T22:39:52.558Z,30.80
2018-08-08T22:42:22.479Z,31.37
2018-08-08T22:44:52.419Z,31.37
2018-08-08T22:47:22.378Z,33.53
2018-08-08T22:49:52.132Z,29.82
2018-08-08T22:52:22.132Z,33.08
2018-08-08T22:54:51.933Z,35.38
2018-08-08T22:57:21.882Z,39.13
2018-08-08T22:59:51.719Z,45.55
2018-08-08T23:02:21.719Z,38.05
2018-08-08T23:04:51.620Z,41.68
2018-08-08T23:07:21.480Z,41.73
2018-08-08T23:09:51.421Z,41.53
2018-08-08T23:12:21.539Z,45.17
2018-08-08T23:14:51.339Z,45.15
2018-08-08T23:17:21.319Z,37.05
2018-08-08T23:19:51.173Z,40.63
2018-08-08T23:22:32.360Z,43.65
2018-08-08T23:25:02.160Z,50.52
2018-08-08T23:27:32.200Z,62.75
2018-08-08T23:30:02.041Z,74.22
2018-08-08T23:32:32.064Z,63.10
2018-08-08T23:35:02.123Z,67.62
2018-08-08T23:37:32.015Z,67.05
2018-08-08T23:40:01.761Z,43.10
2018-08-08T23:42:31.721Z,44.53
2018-08-08T23:45:01.541Z,42.78
2018-08-08T23:47:31.560Z,41.90
2018-08-08T23:50:01.361Z,58.45
2018-08-08T23:52:31.254Z,68.75
2018-08-08T23:55:01.042Z,69.03
2018-08-08T23:57:30.997Z,69.00
